Time;durP1;ratioP1;P1;durP2;ratioP2;P2;SDS_P1;SDS_P2;PMS_P1;PMS_P2;Temp;Humidity;BMP_temperature;BMP_pressure;BME280_temperature;BME280_humidity;BME280_pressure;Samples;Min_cycle;Max_cycle;Signal;HPM_P1;HPM_P2
2022/07/25 00:00:39;;;;;;;4.90;4.00;;;17.00;1.40;;;18.69;100.00;95373.46;617825;226;31872;-75
2022/07/25 00:03:21;;;;;;;4.32;3.70;;;16.90;1.40;;;18.68;100.00;95373.50;622198;222;32378;-75
2022/07/25 00:06:03;;;;;;;3.40;3.10;;;16.80;1.40;;;18.62;100.00;95373.03;647506;216;31547;-75
2022/07/25 00:08:45;;;;;;;6.30;4.10;;;16.80;1.40;;;18.57;100.00;95363.16;644432;212;31591;-75
2022/07/25 00:11:27;;;;;;;5.25;3.60;;;16.80;1.40;;;18.62;100.00;95363.80;648690;216;31557;-75
2022/07/25 00:14:08;;;;;;;3.30;3.00;;;16.80;1.40;;;18.56;100.00;95353.81;649704;216;31530;-75
2022/07/25 00:16:50;;;;;;;5.62;3.85;;;16.80;1.40;;;18.52;100.00;95361.67;620453;222;32507;-74
2022/07/25 00:19:32;;;;;;;4.83;3.37;;;16.70;1.40;;;18.49;100.00;95353.36;621847;222;32150;-75
2022/07/25 00:22:14;;;;;;;4.53;3.30;;;16.70;1.40;;;18.45;100.00;95347.22;647675;212;31590;-75
2022/07/25 00:25:02;;;;;;;4.70;3.53;;;16.80;1.40;;;18.44;100.00;95347.19;647922;216;31547;-75
2022/07/25 00:27:49;;;;;;;5.00;3.62;;;16.70;1.40;;;18.47;100.00;95348.70;617022;226;31896;-75
2022/07/25 00:30:31;;;;;;;6.35;3.83;;;16.70;1.40;;;18.47;100.00;95346.56;648471;212;31568;-74
2022/07/25 00:35:51;;;;;;;4.47;3.83;;;16.60;1.40;;;18.37;100.00;95343.28;648922;216;31604;-75
2022/07/25 00:38:33;;;;;;;5.00;3.28;;;16.60;1.40;;;18.27;100.00;95345.96;646609;212;31560;-74
2022/07/25 00:41:17;;;;;;;3.83;3.50;;;16.50;1.40;;;18.30;100.00;95345.06;645227;216;32673;-74
2022/07/25 00:44:05;;;;;;;3.95;3.10;;;16.50;1.40;;;18.30;100.00;95337.06;647632;216;31575;-75
2022/07/25 00:46:50;;;;;;;5.18;3.78;;;16.60;1.40;;;18.39;100.00;95336.04;648833;215;31571;-75
2022/07/25 00:49:31;;;;;;;5.18;3.90;;;16.80;1.40;;;18.42;100.00;95336.59;650189;212;31615;-74
2022/07/25 00:52:13;;;;;;;4.85;3.62;;;16.90;1.40;;;18.42;100.00;95331.25;623276;226;32127;-75
2022/07/25 00:54:55;;;;;;;4.65;3.62;;;16.90;1.40;;;18.43;100.00;95331.66;635120;212;31801;-74
2022/07/25 00:57:36;;;;;;;4.90;3.85;;;16.80;1.40;;;18.42;100.00;95331.86;647450;216;31543;-74
2022/07/25 01:00:18;;;;;;;5.57;3.97;;;16.70;1.40;;;18.42;100.00;95329.84;648301;212;31555;-75
2022/07/25 01:03:00;;;;;;;4.57;3.85;;;16.60;1.40;;;18.30;100.00;95325.91;647597;216;31572;-74
2022/07/25 01:05:42;;;;;;;6.62;3.80;;;16.50;1.40;;;18.34;100.00;95324.97;644660;216;31528;-74
2022/07/25 01:08:23;;;;;;;4.40;3.72;;;16.70;1.40;;;18.31;100.00;95323.94;649668;216;31557;-74
2022/07/25 01:11:11;;;;;;;4.97;3.85;;;16.60;1.40;;;18.22;100.00;95322.13;648166;216;31573;-75
2022/07/25 01:13:53;;;;;;;4.40;3.40;;;16.60;1.40;;;18.23;100.00;95320.69;618301;226;32034;-75
2022/07/25 01:16:40;;;;;;;4.75;3.87;;;16.60;1.40;;;18.25;100.00;95322.28;621129;222;32042;-76
2022/07/25 01:19:22;;;;;;;6.50;4.12;;;16.60;1.40;;;18.26;100.00;95321.92;647462;212;31540;-75
2022/07/25 01:22:04;;;;;;;5.03;4.37;;;16.60;1.40;;;18.23;100.00;95315.49;621872;222;31864;-74
2022/07/25 01:24:46;;;;;;;6.90;3.60;;;16.60;1.40;;;18.23;100.00;95306.56;647127;212;31588;-74
2022/07/25 01:27:27;;;;;;;5.95;4.30;;;16.60;1.40;;;18.34;100.00;95306.35;645667;216;31575;-75
2022/07/25 01:30:10;;;;;;;4.30;3.90;;;16.50;1.40;;;18.22;100.00;95300.88;649710;216;31562;-75
2022/07/25 01:32:52;;;;;;;3.45;3.15;;;16.40;1.40;;;18.05;100.00;95303.16;649314;216;31994;-75
2022/07/25 01:35:51;;;;;;;5.68;4.28;;;16.30;1.40;;;17.93;100.00;95296.74;647456;212;32126;-75
2022/07/25 01:38:33;;;;;;;5.00;3.70;;;16.30;1.40;;;17.91;100.00;95296.33;646795;216;31744;-75
2022/07/25 01:41:15;;;;;;;4.70;3.40;;;16.20;1.40;;;17.85;100.00;95298.09;645368;216;31553;-75
2022/07/25 01:44:03;;;;;;;7.45;3.70;;;16.20;1.40;;;17.82;100.00;95296.29;619565;226;31900;-75
2022/07/25 01:46:46;;;;;;;6.10;3.97;;;16.10;1.40;;;17.79;100.00;95293.91;648671;216;31689;-74
2022/07/25 01:49:28;;;;;;;4.47;4.05;;;16.10;1.40;;;17.79;100.00;95295.55;651144;212;31614;-74
2022/07/25 01:52:10;;;;;;;3.30;2.80;;;16.00;1.40;;;17.80;100.00;95291.80;652305;216;42145;-75
2022/07/25 01:54:52;;;;;;;4.05;3.65;;;16.00;1.40;;;17.86;100.00;95291.30;638266;216;31765;-74
2022/07/25 01:57:33;;;;;;;3.83;3.28;;;16.10;1.40;;;17.84;100.00;95288.06;649857;216;31583;-74
2022/07/25 02:00:18;;;;;;;5.70;3.30;;;16.00;1.40;;;17.66;100.00;95286.62;647380;216;31552;-75
2022/07/25 02:05:47;;;;;;;4.77;3.50;;;15.80;1.40;;;17.48;100.00;95276.64;645398;216;34834;-75
2022/07/25 02:08:30;;;;;;;5.93;4.07;;;15.70;1.40;;;17.43;100.00;95274.17;645800;216;31664;-75
2022/07/25 02:11:12;;;;;;;5.72;4.22;;;15.70;1.40;;;17.43;100.00;95271.46;651970;216;31520;-74
2022/07/25 02:13:53;;;;;;;4.80;2.95;;;15.70;1.40;;;17.37;100.00;95271.73;646109;212;31528;-75
2022/07/25 02:16:35;;;;;;;4.80;3.80;;;15.60;1.40;;;17.19;100.00;95267.67;648265;216;31614;-74
2022/07/25 02:19:17;;;;;;;4.78;3.75;;;15.40;1.40;;;17.18;100.00;95269.27;646748;216;31542;-74
2022/07/25 02:21:58;;;;;;;6.00;3.50;;;15.30;1.40;;;17.08;100.00;95267.89;645827;212;31548;-75
2022/07/25 02:24:40;;;;;;;3.78;2.67;;;15.20;1.40;;;16.91;100.00;95271.62;649576;212;32144;-74
2022/07/25 02:27:22;;;;;;;3.80;3.20;;;15.20;1.40;;;16.57;100.00;95273.52;647326;212;31663;-74
2022/07/25 02:30:08;;;;;;;4.03;3.67;;;15.10;1.40;;;16.55;100.00;95265.67;646015;212;31582;-74
2022/07/25 02:32:50;;;;;;;6.03;3.33;;;15.00;1.40;;;16.66;100.00;95263.34;647175;212;31567;-75
2022/07/25 02:35:51;;;;;;;5.68;3.50;;;15.10;1.40;;;16.61;100.00;95262.05;649603;212;31558;-74
2022/07/25 02:38:35;;;;;;;4.10;3.25;;;15.10;1.40;;;16.71;100.00;95261.02;645215;216;31687;-74
2022/07/25 02:41:17;;;;;;;3.90;3.60;;;15.20;1.40;;;16.80;100.00;95258.17;650737;212;31522;-75
2022/07/25 02:43:59;;;;;;;3.62;3.22;;;15.30;1.40;;;16.82;100.00;95257.23;644505;212;31534;-74
2022/07/25 02:46:40;;;;;;;4.93;4.45;;;15.30;1.40;;;16.85;100.00;95252.94;651029;212;31540;-74
2022/07/25 02:49:22;;;;;;;3.78;3.42;;;15.40;1.40;;;16.95;100.00;95256.50;645736;212;31536;-74
2022/07/25 02:52:04;;;;;;;4.70;4.07;;;15.40;1.40;;;16.86;100.00;95256.89;650587;212;31570;-74
2022/07/25 02:54:46;;;;;;;6.03;4.20;;;15.40;1.40;;;16.93;100.00;95255.84;623205;222;32053;-74
2022/07/25 02:57:28;;;;;;;5.43;3.92;;;15.60;1.40;;;16.88;100.00;95248.44;648635;212;31545;-74
2022/07/25 03:00:12;;;;;;;4.43;3.83;;;15.50;1.40;;;16.86;100.00;95251.22;646700;216;31521;-74
2022/07/25 03:02:53;;;;;;;4.87;3.47;;;15.40;1.40;;;16.91;100.00;95250.21;650678;216;31567;-74
2022/07/25 03:05:35;;;;;;;3.95;2.78;;;15.40;1.40;;;16.99;100.00;95251.63;621923;225;31884;-75
2022/07/25 03:11:03;;;;;;;4.83;3.83;;;15.50;1.40;;;17.04;100.00;95253.98;647754;216;31571;-74
2022/07/25 03:13:45;;;;;;;5.68;3.80;;;15.70;1.40;;;17.09;100.00;95253.77;650826;213;32561;-74
2022/07/25 03:16:27;;;;;;;4.40;2.97;;;15.70;1.40;;;17.07;100.00;95244.67;645379;212;31633;-74
2022/07/25 03:19:10;;;;;;;4.03;3.40;;;15.70;1.40;;;17.11;100.00;95234.03;624037;222;31952;-75
2022/07/25 03:21:50;;;;;;;3.78;3.28;;;15.70;1.40;;;17.06;100.00;95233.86;621190;226;31935;-74
2022/07/25 03:24:32;;;;;;;5.15;4.05;;;15.50;1.40;;;17.09;100.00;95233.66;648093;216;31589;-74
2022/07/25 03:27:14;;;;;;;4.80;3.00;;;15.50;1.40;;;17.09;100.00;95231.57;647022;216;31560;-74
2022/07/25 03:29:55;;;;;;;3.42;3.12;;;15.60;1.40;;;17.02;100.00;95225.09;646383;216;31600;-74
2022/07/25 03:32:37;;;;;;;4.53;3.28;;;15.50;1.40;;;16.98;100.00;95225.73;646751;216;31539;-74
2022/07/25 03:35:51;;;;;;;4.65;4.18;;;15.40;1.40;;;16.96;100.00;95228.03;644630;216;31582;-74
2022/07/25 03:38:33;;;;;;;4.50;4.10;;;15.40;1.40;;;16.98;100.00;95221.84;648429;216;31548;-74
2022/07/25 03:41:18;;;;;;;5.55;3.30;;;15.40;1.40;;;17.01;100.00;95220.37;649807;216;31527;-75
2022/07/25 03:43:59;;;;;;;3.62;3.25;;;15.40;1.40;;;17.06;100.00;95221.70;645926;212;32000;-74
2022/07/25 03:46:41;;;;;;;5.35;4.07;;;15.40;1.40;;;17.06;100.00;95226.30;650204;216;31541;-74
2022/07/25 03:49:23;;;;;;;3.03;2.70;;;15.40;1.40;;;17.03;100.00;95226.62;649702;216;31958;-74
2022/07/25 03:52:07;;;;;;;3.95;3.33;;;15.30;1.40;;;17.03;100.00;95228.18;648576;216;31612;-75
2022/07/25 03:54:54;;;;;;;3.83;3.50;;;15.20;1.40;;;16.90;100.00;95230.53;637464;212;32052;-75
2022/07/25 03:57:44;;;;;;;3.22;2.92;;;15.10;1.40;;;16.72;100.00;95226.41;647271;212;31482;-75
2022/07/25 04:00:32;;;;;;;4.07;3.53;;;15.10;1.40;;;16.63;100.00;95227.08;648099;216;31586;-74
2022/07/25 04:03:13;;;;;;;3.08;2.53;;;15.00;1.40;;;16.62;100.00;95228.47;650110;216;31559;-75
2022/07/25 04:05:55;;;;;;;5.47;3.37;;;14.90;1.40;;;16.57;100.00;95226.14;650685;216;31571;-74
2022/07/25 04:08:44;;;;;;;3.90;3.28;;;14.90;1.40;;;16.55;100.00;95228.88;646815;216;31567;-76
2022/07/25 04:11:31;;;;;;;5.90;3.20;;;14.90;1.40;;;16.58;100.00;95227.38;647035;216;31531;-75
2022/07/25 04:14:13;;;;;;;5.28;3.40;;;14.90;1.40;;;16.62;100.00;95230.31;648330;216;31693;-74
2022/07/25 04:16:55;;;;;;;3.72;3.28;;;14.90;1.40;;;16.67;100.00;95224.33;645677;216;31761;-74
2022/07/25 04:19:37;;;;;;;4.62;2.80;;;15.00;1.40;;;16.77;100.00;95225.47;648375;212;31595;-74
2022/07/25 04:22:18;;;;;;;3.85;2.95;;;15.10;1.40;;;16.89;100.00;95227.20;645805;212;31530;-75
2022/07/25 04:25:00;;;;;;;4.07;3.53;;;15.10;1.40;;;16.91;100.00;95218.62;645310;216;31643;-74
2022/07/25 04:27:48;;;;;;;3.65;3.10;;;15.20;1.40;;;16.99;100.00;95218.72;648580;216;31550;-75
2022/07/25 04:30:29;;;;;;;4.85;3.83;;;15.20;1.40;;;17.01;100.00;95213.96;619249;226;31887;-77
2022/07/25 04:35:50;;;;;;;3.40;3.10;;;15.30;1.40;;;17.17;100.00;95214.31;648881;212;31621;-75
2022/07/25 04:38:34;;;;;;;5.93;3.60;;;15.50;1.40;;;17.19;100.00;95211.41;615663;222;31936;-76
2022/07/25 04:41:22;;;;;;;4.87;3.50;;;15.60;1.40;;;17.23;100.00;95206.97;622806;226;32048;-74
2022/07/25 04:44:06;;;;;;;6.95;3.70;;;15.60;1.40;;;17.28;100.00;95211.62;650486;212;31593;-75
2022/07/25 04:46:46;;;;;;;6.07;3.67;;;15.60;1.40;;;17.38;100.00;95207.03;648323;212;31526;-75
2022/07/25 04:49:27;;;;;;;4.93;3.83;;;15.70;1.40;;;17.54;100.00;95208.14;621934;226;32128;-75
2022/07/25 04:52:09;;;;;;;4.30;3.78;;;16.00;1.40;;;17.68;100.00;95202.73;647840;212;31539;-74
2022/07/25 04:54:51;;;;;;;6.07;4.18;;;16.10;1.40;;;17.88;100.00;95199.10;640189;216;31681;-74
2022/07/25 05:00:09;;;;;;;4.12;3.35;;;16.40;1.40;;;18.09;100.00;95203.47;645343;212;31593;-74
2022/07/25 05:02:53;;;;;;;4.10;3.70;;;16.50;1.40;;;18.15;100.00;95198.28;643173;213;32280;-75
2022/07/25 05:05:35;;;;;;;5.05;3.40;;;16.60;1.40;;;18.30;100.00;95198.89;649285;216;32117;-75
2022/07/25 05:08:17;;;;;;;4.85;4.22;;;16.80;1.40;;;18.39;100.00;95197.30;647759;212;31637;-74
2022/07/25 05:10:58;;;;;;;4.72;3.72;;;16.90;1.40;;;18.50;100.00;95197.14;621054;226;31896;-75
2022/07/25 05:13:40;;;;;;;6.68;3.97;;;17.00;1.40;;;18.62;100.00;95196.27;618281;222;31900;-74
2022/07/25 05:16:22;;;;;;;5.32;3.83;;;17.10;1.40;;;18.75;100.00;95198.71;621641;222;31896;-74
2022/07/25 05:19:03;;;;;;;6.25;4.15;;;17.30;1.40;;;18.92;100.00;95203.73;650821;216;31555;-74
2022/07/25 05:21:45;;;;;;;4.57;4.13;;;17.50;1.40;;;19.04;100.00;95199.70;648184;216;31523;-74
2022/07/25 05:24:27;;;;;;;6.18;4.65;;;17.60;1.40;;;19.22;100.00;95205.95;649071;212;31666;-74
2022/07/25 05:27:09;;;;;;;5.10;4.10;;;17.70;1.40;;;19.38;100.00;95200.06;646311;216;31540;-74
2022/07/25 05:29:51;;;;;;;7.07;4.40;;;18.00;1.40;;;19.55;100.00;95200.00;650696;216;31531;-74
2022/07/25 05:32:34;;;;;;;6.43;4.47;;;18.10;1.40;;;19.70;100.00;95199.19;647231;216;31536;-76
2022/07/25 05:35:51;;;;;;;7.20;4.30;;;18.20;1.40;;;19.86;100.00;95200.38;619743;226;31985;-74
2022/07/25 05:38:33;;;;;;;5.90;4.53;;;18.40;1.40;;;20.03;100.00;95199.59;648418;216;32270;-74
2022/07/25 05:41:15;;;;;;;5.47;4.70;;;18.60;1.40;;;20.22;100.00;95193.61;633335;222;31891;-75
2022/07/25 05:44:02;;;;;;;9.00;4.45;;;18.90;1.40;;;20.41;100.00;95196.38;646171;216;31647;-76
2022/07/25 05:46:50;;;;;;;5.12;4.10;;;19.10;1.40;;;20.60;100.00;95196.31;644478;212;31539;-75
2022/07/25 05:49:32;;;;;;;4.07;3.67;;;19.30;1.40;;;20.82;100.00;95194.94;649621;212;31541;-75
2022/07/25 05:52:14;;;;;;;6.05;3.87;;;19.60;1.40;;;20.99;100.00;95198.76;647050;216;42890;-75
2022/07/25 05:54:55;;;;;;;6.47;5.07;;;19.80;1.40;;;21.12;100.00;95193.74;633776;216;34513;-75
2022/07/25 05:57:37;;;;;;;7.78;4.85;;;19.90;1.40;;;21.22;100.00;95192.80;647545;212;42167;-75
2022/07/25 06:00:19;;;;;;;4.90;4.20;;;20.00;1.40;;;21.33;100.00;95188.01;646663;216;31565;-73
2022/07/25 06:05:35;;;;;;;5.30;4.60;;;20.20;1.40;;;21.33;100.00;95181.64;647051;212;42185;-77
2022/07/25 06:08:23;;;;;;;5.28;4.10;;;19.20;1.40;;;21.18;100.00;95181.29;647459;216;31553;-76
2022/07/25 06:11:04;;;;;;;5.43;4.87;;;19.10;1.40;;;20.99;100.00;95177.02;645965;216;32164;-76
2022/07/25 06:13:52;;;;;;;5.65;4.37;;;18.80;1.40;;;20.78;100.00;95182.75;648269;216;31738;-77
2022/07/25 06:16:34;;;;;;;6.43;4.80;;;18.50;1.40;;;20.72;100.00;95178.48;620509;226;31886;-78
2022/07/25 06:19:17;;;;;;;6.60;5.10;;;18.50;1.40;;;20.61;100.00;95176.23;648507;216;31812;-76
2022/07/25 06:21:59;;;;;;;6.75;4.95;;;18.40;1.40;;;20.67;100.00;95177.22;648364;216;31828;-76
2022/07/25 06:24:41;;;;;;;5.25;3.90;;;18.50;1.40;;;20.75;100.00;95175.96;647315;216;31600;-75
2022/07/25 06:27:28;;;;;;;6.62;4.95;;;18.50;1.40;;;20.89;100.00;95181.94;645737;216;31552;-75
2022/07/25 06:31:10;;;;;;;5.90;5.30;;;18.70;1.40;;;21.14;100.00;95178.33;646916;216;31576;-75
2022/07/25 06:35:51;;;;;;;5.77;4.13;;;19.20;1.40;;;21.44;100.00;95174.67;645283;213;42210;-76
2022/07/25 06:38:33;;;;;;;6.50;4.65;;;19.20;1.40;;;21.52;100.00;95179.14;647006;216;31582;-75
2022/07/25 06:41:16;;;;;;;5.80;4.32;;;19.50;1.40;;;21.81;100.00;95180.53;649406;216;31729;-75
2022/07/25 06:44:00;;;;;;;5.85;4.20;;;20.00;1.40;;;22.18;100.00;95175.44;617858;226;31874;-75
2022/07/25 06:49:16;;;;;;;6.37;4.57;;;20.60;1.40;;;22.59;100.00;95177.92;647848;212;31561;-75
2022/07/25 06:52:05;;;;;;;6.07;4.78;;;20.80;1.40;;;22.88;100.00;95175.36;649190;212;31570;-75
2022/07/25 06:54:49;;;;;;;5.95;4.72;;;21.00;1.40;;;23.22;100.00;95175.41;635366;212;31718;-76
2022/07/25 06:57:36;;;;;;;6.70;5.23;;;21.00;1.40;;;23.47;100.00;95175.33;648408;216;31603;-75
2022/07/25 07:00:24;;;;;;;6.78;4.85;;;21.20;1.40;;;24.00;100.00;95170.33;648366;212;31756;-75
2022/07/25 07:03:17;;;;;;;6.12;4.72;;;22.30;1.40;;;24.30;100.00;95164.84;647427;216;42427;-75
2022/07/25 07:06:05;;;;;;;5.97;4.75;;;22.60;1.40;;;24.52;100.00;95166.19;622861;222;31959;-75
2022/07/25 07:08:47;;;;;;;6.15;4.78;;;22.90;1.40;;;24.83;100.00;95167.44;617941;226;32255;-75
2022/07/25 07:11:29;;;;;;;5.72;4.40;;;23.60;1.40;;;25.05;100.00;95160.48;619728;226;31944;-75
2022/07/25 07:15:48;;;;;;;6.03;4.85;;;24.10;1.40;;;25.26;100.00;95161.94;645457;212;31544;-75
2022/07/25 07:18:37;;;;;;;6.68;5.43;;;24.20;1.40;;;25.28;100.00;95158.45;650032;216;31832;-76
2022/07/25 07:21:25;;;;;;;6.15;5.40;;;24.10;1.40;;;25.39;100.00;95158.90;650701;216;32564;-75
2022/07/25 07:24:07;;;;;;;5.97;5.30;;;24.10;1.40;;;25.65;100.00;95156.44;649340;216;31573;-75
2022/07/25 07:26:49;;;;;;;5.78;5.05;;;24.40;1.40;;;25.79;100.00;95156.77;646791;216;31572;-75
2022/07/25 07:29:30;;;;;;;7.15;5.55;;;24.60;1.40;;;25.98;100.00;95156.70;647857;212;31704;-75
2022/07/25 07:32:12;;;;;;;6.80;5.60;;;24.90;1.40;;;26.20;100.00;95155.23;647205;216;31599;-75
2022/07/25 07:35:55;;;;;;;7.23;4.80;;;25.30;1.40;;;26.59;100.00;95151.03;650167;216;31674;-75
2022/07/25 07:38:40;;;;;;;5.60;5.00;;;25.60;1.40;;;26.78;100.00;95153.94;648608;216;32103;-75
2022/07/25 07:41:28;;;;;;;5.57;4.70;;;25.70;1.40;;;27.17;100.00;95153.46;648006;216;31617;-76
2022/07/25 07:44:12;;;;;;;5.62;4.95;;;26.10;1.40;;;27.28;100.00;95154.10;645198;216;31600;-74
2022/07/25 07:46:53;;;;;;;6.10;5.50;;;26.20;1.40;;;27.41;98.15;95152.61;647872;216;31567;-75
2022/07/25 07:49:35;;;;;;;6.30;4.85;;;26.30;1.40;;;27.51;98.54;95148.00;647134;216;31744;-75
2022/07/25 07:52:23;;;;;;;5.37;4.87;;;26.40;1.40;;;27.56;99.61;95144.39;646923;216;31760;-76
2022/07/25 07:58:00;;;;;;;8.55;5.45;;;26.40;1.40;;;27.83;93.34;95144.69;647025;212;31598;-75
2022/07/25 08:00:42;;;;;;;6.57;5.50;;;26.70;1.40;;;28.04;92.87;95142.44;645153;216;31689;-75
2022/07/25 08:03:26;;;;;;;6.20;5.50;;;26.80;1.40;;;28.01;94.14;95139.72;648329;216;31576;-75
2022/07/25 08:06:09;;;;;;;6.07;5.40;;;26.60;1.40;;;28.25;90.02;95137.08;645945;216;31813;-74
2022/07/25 08:08:57;;;;;;;6.78;5.62;;;26.90;1.40;;;28.44;88.28;95135.88;646433;216;41895;-75
2022/07/25 08:11:44;;;;;;;6.20;5.60;;;27.20;1.40;;;28.45;87.87;95137.61;645729;216;31531;-75
2022/07/25 08:14:26;;;;;;;5.70;4.60;;;27.20;1.40;;;28.63;87.28;95139.05;649507;212;31551;-75
2022/07/25 08:17:08;;;;;;;7.65;5.10;;;27.40;1.40;;;28.86;86.20;95130.30;617851;222;31873;-75
2022/07/25 08:19:49;;;;;;;6.35;5.62;;;27.70;1.40;;;29.00;85.31;95128.42;645534;216;31532;-75
2022/07/25 08:22:44;;;;;;;7.20;4.45;;;27.90;1.40;;;29.06;82.74;95125.88;648603;212;42194;-75
2022/07/25 08:25:26;;;;;;;7.30;4.53;;;27.90;1.40;;;29.23;83.13;95125.36;634022;222;33093;-75
2022/07/25 08:28:13;;;;;;;5.90;4.30;;;27.90;1.40;;;29.48;80.33;95119.66;646610;216;31600;-76
2022/07/25 08:30:55;;;;;;;5.43;4.47;;;28.20;1.40;;;29.60;74.21;95119.21;649239;216;31529;-76
2022/07/25 08:35:52;;;;;;;4.75;4.15;;;28.80;1.40;;;30.06;72.00;95117.58;646379;212;32206;-75
2022/07/25 08:38:36;;;;;;;5.47;4.65;;;28.90;1.40;;;30.02;68.55;95113.81;651514;216;31566;-75
2022/07/25 08:41:18;;;;;;;5.40;4.90;;;28.90;1.40;;;30.41;71.22;95117.84;645954;216;31564;-75
2022/07/25 08:43:59;;;;;;;5.68;4.90;;;29.30;1.40;;;30.44;70.39;95114.66;647100;216;31575;-75
2022/07/25 08:46:41;;;;;;;8.63;4.60;;;29.30;1.40;;;30.68;72.37;95112.32;646045;212;31649;-75
2022/07/25 08:49:25;;;;;;;5.95;4.90;;;29.50;1.40;;;30.52;69.93;95112.86;651697;216;31897;-77
2022/07/25 08:52:13;;;;;;;7.10;4.97;;;29.30;1.40;;;30.78;71.80;95109.83;650394;216;31573;-75
2022/07/25 08:54:54;;;;;;;6.37;4.95;;;29.70;1.40;;;30.92;70.71;95106.66;645222;216;31713;-74
2022/07/25 08:57:36;;;;;;;6.25;5.07;;;29.60;1.40;;;31.18;72.24;95106.93;646110;216;31619;-75
2022/07/25 09:00:18;;;;;;;5.65;5.15;;;30.00;1.40;;;31.45;71.54;95105.97;645876;216;31762;-75
2022/07/25 09:03:02;;;;;;;5.85;4.85;;;30.30;1.40;;;31.10;70.63;95103.51;645409;212;31685;-75
2022/07/25 09:05:43;;;;;;;6.45;5.85;;;29.90;1.40;;;31.36;69.93;95105.95;646885;216;31708;-75
2022/07/25 09:08:26;;;;;;;6.15;4.90;;;30.10;1.40;;;31.26;68.86;95107.74;647044;216;31770;-75
2022/07/25 09:11:08;;;;;;;5.30;4.80;;;30.10;1.40;;;31.44;67.90;95108.91;645732;216;31746;-75
2022/07/25 09:14:03;;;;;;;5.53;5.03;;;30.30;1.40;;;31.47;67.53;95104.01;647150;216;31621;-76
2022/07/25 09:16:51;;;;;;;6.60;5.20;;;30.10;1.40;;;31.42;68.17;95100.56;646519;216;31599;-75
2022/07/25 09:19:32;;;;;;;5.68;5.07;;;30.20;1.40;;;31.67;67.95;95096.07;646052;216;32255;-75
2022/07/25 09:22:14;;;;;;;5.70;5.10;;;30.50;1.40;;;32.08;67.35;95098.63;646551;216;31579;-75
2022/07/25 09:24:59;;;;;;;5.82;5.22;;;30.80;1.40;;;32.72;66.17;95096.37;646783;216;31587;-75
2022/07/25 09:27:40;;;;;;;5.45;4.85;;;32.30;1.40;;;33.98;61.59;95099.07;645725;216;31738;-74
2022/07/25 09:30:22;;;;;;;5.30;4.80;;;34.00;1.40;;;33.74;58.69;95097.24;618902;225;31870;-75
2022/07/25 09:35:58;;;;;;;6.55;5.12;;;34.20;1.40;;;34.41;57.96;95091.75;646036;216;32464;-75
2022/07/25 09:39:00;;;;;;;5.35;4.82;;;34.90;1.40;;;35.36;56.05;95087.41;621139;222;31898;-77
2022/07/25 09:41:42;;;;;;;6.07;4.50;;;36.10;1.40;;;35.37;53.89;95086.94;648746;212;32144;-77
2022/07/25 09:44:30;;;;;;;5.57;5.07;;;35.60;1.40;;;35.56;53.52;95087.91;645709;212;31544;-75
2022/07/25 09:47:12;;;;;;;6.50;5.43;;;35.30;1.40;;;36.35;52.44;95080.27;619060;226;32036;-74
2022/07/25 09:49:53;;;;;;;6.25;5.20;;;36.30;1.40;;;37.01;50.00;95081.94;647027;212;31652;-76
2022/07/25 09:52:35;;;;;;;5.70;5.20;;;36.70;1.40;;;36.28;49.70;95079.45;643530;216;42404;-74
2022/07/25 09:55:18;;;;;;;6.43;5.72;;;35.10;1.40;;;35.43;51.33;95085.89;647672;216;42861;-75
2022/07/25 09:57:59;;;;;;;5.40;4.90;;;34.90;1.40;;;36.94;49.73;95067.71;645959;216;31578;-76
2022/07/25 10:00:40;;;;;;;5.60;5.10;;;36.80;1.40;;;37.17;49.17;95071.61;645711;216;31763;-73
2022/07/25 10:03:32;;;;;;;6.00;5.50;;;36.90;1.40;;;37.82;47.37;95069.51;647596;216;32810;-78
2022/07/25 10:06:24;;;;;;;11.93;5.90;;;37.50;1.40;;;38.11;45.17;95055.70;621792;222;32631;-78
2022/07/25 10:09:13;;;;;;;5.20;4.70;;;37.30;1.40;;;39.16;42.87;95058.48;646991;216;31581;-74
2022/07/25 10:12:05;;;;;;;5.15;4.75;;;37.90;1.40;;;37.21;44.91;95058.56;648399;216;31595;-74
2022/07/25 10:15:08;;;;;;;6.20;5.00;;;36.00;1.40;;;37.20;45.23;95059.83;619967;226;31945;-76
2022/07/25 10:17:51;;;;;;;6.18;5.00;;;36.80;1.40;;;37.35;44.98;95059.45;647692;216;31659;-76
2022/07/25 10:20:37;;;;;;;5.05;4.65;;;36.00;1.40;;;37.26;45.79;95056.50;647928;216;31645;-77
2022/07/25 10:23:22;;;;;;;5.30;4.90;;;36.10;1.40;;;37.94;44.75;95053.05;645478;216;31587;-74
2022/07/25 10:26:06;;;;;;;5.45;4.90;;;37.20;1.40;;;39.21;43.10;95039.34;647447;216;31704;-75
2022/07/25 10:28:51;;;;;;;6.10;4.93;;;38.40;1.40;;;39.37;41.87;95035.33;645587;216;31970;-75
2022/07/25 10:31:41;;;;;;;6.65;4.97;;;38.10;1.40;;;39.35;41.18;95027.67;647025;216;31934;-77
2022/07/25 10:35:51;;;;;;;4.37;4.00;;;38.00;1.40;;;38.71;38.07;95028.95;646741;212;31715;-76
2022/07/25 10:38:41;;;;;;;3.80;3.50;;;37.00;1.40;;;38.53;38.41;95034.91;645980;216;31560;-78
2022/07/25 10:44:00;;;;;;;4.20;3.80;;;37.20;1.40;;;37.84;38.08;95041.52;645712;212;32117;-76
2022/07/25 10:46:43;;;;;;;3.90;3.60;;;36.70;1.40;;;37.42;37.55;95037.56;620406;222;42643;-77
2022/07/25 10:49:25;;;;;;;3.75;3.45;;;36.60;1.40;;;37.41;37.87;95034.25;646695;212;31566;-78
2022/07/25 10:52:07;;;;;;;3.92;3.53;;;36.70;1.40;;;38.65;37.76;95023.86;619495;222;32020;-78
2022/07/25 10:54:54;;;;;;;3.90;3.60;;;37.80;1.40;;;37.69;37.15;95038.14;621044;222;31950;-78
2022/07/25 10:57:42;;;;;;;4.20;3.80;;;36.00;1.40;;;38.23;37.27;95025.47;646673;216;31762;-76
2022/07/25 11:00:24;;;;;;;5.75;3.75;;;37.00;1.40;;;37.98;36.70;95028.81;647856;212;31563;-77
2022/07/25 11:03:11;;;;;;;4.37;3.70;;;37.00;1.40;;;37.89;36.96;95038.17;647210;212;31582;-78
2022/07/25 11:05:59;;;;;;;4.50;4.10;;;36.60;1.40;;;38.40;36.75;95029.80;646179;214;31698;-75
2022/07/25 11:08:41;;;;;;;5.00;3.60;;;37.40;1.40;;;39.17;35.39;95024.72;645297;216;33131;-76
2022/07/25 11:11:39;;;;;;;4.80;3.87;;;37.40;1.40;;;39.73;35.47;95021.63;647245;216;31784;-77
2022/07/25 11:14:24;;;;;;;3.53;3.22;;;38.00;1.40;;;39.35;35.69;95016.63;647191;212;31570;-76
2022/07/25 11:17:17;;;;;;;4.00;3.60;;;37.10;1.40;;;39.35;34.47;95011.50;647852;216;31698;-78
2022/07/25 11:19:58;;;;;;;3.75;3.45;;;37.40;1.40;;;39.13;35.37;95012.48;646555;216;31678;-78
2022/07/25 11:22:42;;;;;;;3.83;3.53;;;37.60;1.40;;;39.20;34.20;95012.36;647036;216;32422;-77
2022/07/25 11:25:30;;;;;;;6.50;3.70;;;37.20;1.40;;;39.65;33.97;95008.61;642513;216;31586;-78
2022/07/25 11:28:13;;;;;;;3.20;2.90;;;37.30;1.40;;;39.19;34.54;95010.39;652571;216;22503;-76
2022/07/25 11:35:51;;;;;;;3.72;3.40;;;38.30;1.40;;;37.67;34.48;95015.87;648525;216;32207;-76
2022/07/25 11:38:39;;;;;;;3.60;3.30;;;36.00;1.40;;;37.59;35.54;95016.77;645600;216;31603;-76
2022/07/25 11:41:28;;;;;;;5.78;3.20;;;35.30;1.40;;;37.29;34.20;95014.33;645814;212;31574;-75
2022/07/25 11:44:12;;;;;;;4.70;3.40;;;35.90;1.40;;;37.23;34.56;95017.53;648040;212;32437;-77
2022/07/25 11:46:59;;;;;;;3.60;3.30;;;35.90;1.40;;;37.08;34.43;95013.63;646391;216;42345;-74
2022/07/25 11:49:47;;;;;;;3.40;3.10;;;36.00;1.40;;;37.88;34.20;95003.13;619237;225;32103;-78
2022/07/25 11:52:35;;;;;;;3.20;3.00;;;37.10;1.40;;;37.53;34.11;95004.34;643759;216;32148;-74
2022/07/25 11:55:17;;;;;;;4.65;3.70;;;36.40;1.40;;;38.09;33.93;95007.73;647418;216;32123;-78
2022/07/25 11:58:05;;;;;;;3.42;3.12;;;37.00;1.40;;;38.20;34.13;95001.44;645740;212;31704;-78
2022/07/25 12:00:47;;;;;;;3.42;3.12;;;36.60;1.40;;;38.78;33.51;94990.78;647601;216;31686;-77
2022/07/25 12:03:34;;;;;;;4.07;3.67;;;37.10;1.40;;;38.55;33.45;94984.92;647810;216;31735;-76
2022/07/25 12:06:25;;;;;;;4.90;3.87;;;36.20;1.40;;;38.52;33.82;94996.73;618548;226;32070;-78
2022/07/25 12:09:14;;;;;;;3.30;3.00;;;36.00;1.40;;;38.44;33.60;94996.57;646239;212;31777;-75
2022/07/25 12:12:02;;;;;;;3.40;3.10;;;36.70;1.40;;;38.51;34.48;94983.72;646369;216;31928;-79
2022/07/25 12:14:51;;;;;;;3.60;3.30;;;36.70;1.40;;;37.66;34.91;94985.10;646420;216;31608;-77